sensor_id;sensor_type;location;lat;lon;timestamp;pressure;altitude;pressure_sealevel;temperature;humidity
77333;BME280;66408;51.326;12.070;2023-01-16T00:01:37;99384.00;;;4.78;67.84
77333;BME280;66408;51.326;12.070;2023-01-16T00:04:04;99367.34;;;4.76;67.71
77333;BME280;66408;51.326;12.070;2023-01-16T00:06:31;99367.28;;;4.81;67.40
77333;BME280;66408;51.326;12.070;2023-01-16T00:08:57;99370.84;;;4.77;67.74
77333;BME280;66408;51.326;12.070;2023-01-16T00:11:23;99366.38;;;4.67;68.02
77333;BME280;66408;51.326;12.070;2023-01-16T00:13:50;99362.00;;;4.71;67.66
77333;BME280;66408;51.326;12.070;2023-01-16T00:16:16;99364.94;;;4.75;68.06
77333;BME280;66408;51.326;12.070;2023-01-16T00:18:45;99350.44;;;4.70;67.99
77333;BME280;66408;51.326;12.070;2023-01-16T00:21:11;99350.22;;;4.67;68.17
77333;BME280;66408;51.326;12.070;2023-01-16T00:23:38;99347.91;;;4.79;67.89
77333;BME280;66408;51.326;12.070;2023-01-16T00:26:06;99341.94;;;4.82;67.88
77333;BME280;66408;51.326;12.070;2023-01-16T00:28:32;99350.59;;;4.79;68.36
77333;BME280;66408;51.326;12.070;2023-01-16T00:30:59;99346.81;;;4.80;68.19
77333;BME280;66408;51.326;12.070;2023-01-16T00:33:25;99330.50;;;4.72;68.72
77333;BME280;66408;51.326;12.070;2023-01-16T00:35:52;99331.28;;;4.72;69.08
77333;BME280;66408;51.326;12.070;2023-01-16T00:38:18;99338.13;;;4.64;69.52
77333;BME280;66408;51.326;12.070;2023-01-16T00:40:45;99338.56;;;4.53;70.03
77333;BME280;66408;51.326;12.070;2023-01-16T00:43:11;99323.66;;;4.60;70.20
77333;BME280;66408;51.326;12.070;2023-01-16T00:45:38;99322.41;;;4.72;69.73
77333;BME280;66408;51.326;12.070;2023-01-16T00:48:06;99329.69;;;4.71;69.68
77333;BME280;66408;51.326;12.070;2023-01-16T00:50:33;99319.81;;;4.66;69.96
77333;BME280;66408;51.326;12.070;2023-01-16T00:52:59;99317.25;;;4.56;69.62
77333;BME280;66408;51.326;12.070;2023-01-16T00:55:25;99314.97;;;4.45;71.00
77333;BME280;66408;51.326;12.070;2023-01-16T00:57:52;99309.00;;;4.48;70.79
77333;BME280;66408;51.326;12.070;2023-01-16T01:00:19;99304.38;;;4.53;70.47
77333;BME280;66408;51.326;12.070;2023-01-16T01:02:50;99301.59;;;4.58;69.62
77333;BME280;66408;51.326;12.070;2023-01-16T01:05:17;99308.81;;;4.63;69.76
77333;BME280;66408;51.326;12.070;2023-01-16T01:07:43;99299.22;;;4.57;70.09
77333;BME280;66408;51.326;12.070;2023-01-16T01:10:10;99297.00;;;4.59;70.15
77333;BME280;66408;51.326;12.070;2023-01-16T01:12:36;99288.00;;;4.50;70.23
77333;BME280;66408;51.326;12.070;2023-01-16T01:15:03;99289.44;;;4.61;69.35
77333;BME280;66408;51.326;12.070;2023-01-16T01:17:30;99283.56;;;4.59;69.75
77333;BME280;66408;51.326;12.070;2023-01-16T01:19:56;99274.75;;;4.53;69.41
77333;BME280;66408;51.326;12.070;2023-01-16T01:22:23;99276.41;;;4.49;69.15
77333;BME280;66408;51.326;12.070;2023-01-16T01:24:49;99265.75;;;4.44;69.39
77333;BME280;66408;51.326;12.070;2023-01-16T01:27:16;99263.25;;;4.29;69.41
77333;BME280;66408;51.326;12.070;2023-01-16T01:29:43;99262.78;;;4.22;69.93
77333;BME280;66408;51.326;12.070;2023-01-16T01:32:09;99259.97;;;4.08;70.29
77333;BME280;66408;51.326;12.070;2023-01-16T01:34:36;99260.06;;;4.03;70.74
77333;BME280;66408;51.326;12.070;2023-01-16T01:37:05;99254.72;;;3.98;70.61
77333;BME280;66408;51.326;12.070;2023-01-16T01:39:31;99254.19;;;3.96;70.63
77333;BME280;66408;51.326;12.070;2023-01-16T01:41:58;99241.56;;;3.96;70.65
77333;BME280;66408;51.326;12.070;2023-01-16T01:44:50;99242.97;;;3.94;70.44
77333;BME280;66408;51.326;12.070;2023-01-16T01:47:21;99244.84;;;3.93;70.61
77333;BME280;66408;51.326;12.070;2023-01-16T01:49:50;99245.38;;;3.95;70.64
77333;BME280;66408;51.326;12.070;2023-01-16T01:52:18;99243.44;;;3.96;70.74
77333;BME280;66408;51.326;12.070;2023-01-16T01:54:51;99246.66;;;3.98;70.33
77333;BME280;66408;51.326;12.070;2023-01-16T01:57:26;99251.63;;;4.10;70.04
77333;BME280;66408;51.326;12.070;2023-01-16T02:00:07;99237.38;;;4.09;69.33
77333;BME280;66408;51.326;12.070;2023-01-16T02:02:37;99242.06;;;3.98;69.97
77333;BME280;66408;51.326;12.070;2023-01-16T02:05:08;99238.94;;;3.91;69.63
77333;BME280;66408;51.326;12.070;2023-01-16T02:07:36;99235.50;;;3.62;70.21
77333;BME280;66408;51.326;12.070;2023-01-16T02:12:35;99229.94;;;3.24;72.34
77333;BME280;66408;51.326;12.070;2023-01-16T02:15:02;99224.00;;;2.99;73.15
77333;BME280;66408;51.326;12.070;2023-01-16T02:17:28;99228.88;;;2.92;73.75
77333;BME280;66408;51.326;12.070;2023-01-16T02:20:16;99220.88;;;2.86;74.02
77333;BME280;66408;51.326;12.070;2023-01-16T02:33:54;99198.53;;;2.96;73.45
77333;BME280;66408;51.326;12.070;2023-01-16T02:36:34;99185.56;;;3.03;73.04
77333;BME280;66408;51.326;12.070;2023-01-16T02:39:18;99176.88;;;3.11;72.26
77333;BME280;66408;51.326;12.070;2023-01-16T02:41:53;99170.34;;;3.22;71.90
77333;BME280;66408;51.326;12.070;2023-01-16T02:49:53;99137.34;;;3.46;70.56
77333;BME280;66408;51.326;12.070;2023-01-16T02:52:35;99127.84;;;3.53;70.12
77333;BME280;66408;51.326;12.070;2023-01-16T02:57:43;99130.53;;;3.53;69.95
77333;BME280;66408;51.326;12.070;2023-01-16T03:00:13;99126.00;;;3.49;70.20
77333;BME280;66408;51.326;12.070;2023-01-16T03:02:43;99112.84;;;3.47;70.10
77333;BME280;66408;51.326;12.070;2023-01-16T03:05:10;99109.44;;;3.42;70.55
77333;BME280;66408;51.326;12.070;2023-01-16T03:15:38;99089.88;;;3.36;70.72
77333;BME280;66408;51.326;12.070;2023-01-16T03:20:51;99072.38;;;3.39;70.61
77333;BME280;66408;51.326;12.070;2023-01-16T03:23:29;99077.66;;;3.25;71.35
77333;BME280;66408;51.326;12.070;2023-01-16T03:26:04;99077.78;;;3.15;71.56
77333;BME280;66408;51.326;12.070;2023-01-16T03:28:46;99074.69;;;3.27;71.65
77333;BME280;66408;51.326;12.070;2023-01-16T03:31:27;99078.56;;;3.15;71.82
77333;BME280;66408;51.326;12.070;2023-01-16T03:39:28;99070.47;;;3.20;72.12
77333;BME280;66408;51.326;12.070;2023-01-16T03:41:59;99070.56;;;3.34;71.52
77333;BME280;66408;51.326;12.070;2023-01-16T03:44:33;99067.94;;;3.29;71.92
77333;BME280;66408;51.326;12.070;2023-01-16T03:47:02;99058.31;;;3.23;72.01
77333;BME280;66408;51.326;12.070;2023-01-16T03:49:34;99056.28;;;3.15;72.15
77333;BME280;66408;51.326;12.070;2023-01-16T03:52:05;99054.69;;;3.14;71.94
77333;BME280;66408;51.326;12.070;2023-01-16T03:54:41;99055.25;;;3.11;71.83
77333;BME280;66408;51.326;12.070;2023-01-16T03:57:19;99056.03;;;3.11;71.96
77333;BME280;66408;51.326;12.070;2023-01-16T03:59:48;99054.69;;;3.14;71.74
77333;BME280;66408;51.326;12.070;2023-01-16T04:02:24;99048.75;;;3.17;71.61
77333;BME280;66408;51.326;12.070;2023-01-16T04:07:47;99040.22;;;3.10;71.49
77333;BME280;66408;51.326;12.070;2023-01-16T04:10:20;99033.66;;;2.97;71.47
77333;BME280;66408;51.326;12.070;2023-01-16T04:12:54;99025.03;;;3.00;71.64
77333;BME280;66408;51.326;12.070;2023-01-16T04:15:24;99025.66;;;2.92;71.67
77333;BME280;66408;51.326;12.070;2023-01-16T04:17:53;99010.13;;;2.89;71.74
77333;BME280;66408;51.326;12.070;2023-01-16T04:20:20;99008.88;;;2.81;72.38
77333;BME280;66408;51.326;12.070;2023-01-16T04:22:48;98993.91;;;2.75;72.70
77333;BME280;66408;51.326;12.070;2023-01-16T04:25:16;99003.09;;;2.69;73.06
77333;BME280;66408;51.326;12.070;2023-01-16T04:27:43;98991.28;;;2.70;73.26
77333;BME280;66408;51.326;12.070;2023-01-16T04:30:11;98985.13;;;2.70;73.21
77333;BME280;66408;51.326;12.070;2023-01-16T04:32:37;98981.28;;;2.76;73.37
77333;BME280;66408;51.326;12.070;2023-01-16T04:35:05;98975.31;;;2.84;73.20
77333;BME280;66408;51.326;12.070;2023-01-16T04:37:31;98965.88;;;2.86;73.15
77333;BME280;66408;51.326;12.070;2023-01-16T04:39:59;98952.50;;;2.81;73.26
77333;BME280;66408;51.326;12.070;2023-01-16T04:42:26;98955.72;;;2.83;73.42
77333;BME280;66408;51.326;12.070;2023-01-16T04:44:52;98958.41;;;2.83;73.48
77333;BME280;66408;51.326;12.070;2023-01-16T04:47:19;98951.88;;;2.89;73.41
77333;BME280;66408;51.326;12.070;2023-01-16T04:49:45;98951.59;;;2.91;73.14
77333;BME280;66408;51.326;12.070;2023-01-16T04:52:12;98940.56;;;2.93;73.31
77333;BME280;66408;51.326;12.070;2023-01-16T04:54:39;98941.94;;;2.90;73.23
77333;BME280;66408;51.326;12.070;2023-01-16T04:57:05;98927.75;;;2.84;73.66
77333;BME280;66408;51.326;12.070;2023-01-16T04:59:32;98931.34;;;2.80;73.93
77333;BME280;66408;51.326;12.070;2023-01-16T05:01:58;98925.41;;;2.83;73.83
77333;BME280;66408;51.326;12.070;2023-01-16T05:04:25;98919.59;;;2.95;73.42
77333;BME280;66408;51.326;12.070;2023-01-16T05:06:51;98914.00;;;2.91;73.22
77333;BME280;66408;51.326;12.070;2023-01-16T05:09:18;98914.63;;;3.07;72.57
77333;BME280;66408;51.326;12.070;2023-01-16T05:11:44;98906.56;;;3.07;72.71
77333;BME280;66408;51.326;12.070;2023-01-16T05:14:10;98907.84;;;3.09;72.48
77333;BME280;66408;51.326;12.070;2023-01-16T05:16:38;98902.13;;;3.16;71.91
77333;BME280;66408;51.326;12.070;2023-01-16T05:19:08;98893.28;;;3.15;72.04
77333;BME280;66408;51.326;12.070;2023-01-16T05:21:36;98886.31;;;3.14;71.77
77333;BME280;66408;51.326;12.070;2023-01-16T05:24:03;98891.00;;;3.22;71.46
77333;BME280;66408;51.326;12.070;2023-01-16T05:26:29;98874.59;;;3.24;71.44
77333;BME280;66408;51.326;12.070;2023-01-16T05:28:56;98881.44;;;3.16;71.55
77333;BME280;66408;51.326;12.070;2023-01-16T05:31:22;98874.84;;;3.28;71.27
77333;BME280;66408;51.326;12.070;2023-01-16T05:33:49;98867.81;;;3.32;71.05
77333;BME280;66408;51.326;12.070;2023-01-16T05:36:15;98859.47;;;3.33;71.33
77333;BME280;66408;51.326;12.070;2023-01-16T05:38:42;98850.94;;;3.26;71.75
77333;BME280;66408;51.326;12.070;2023-01-16T05:41:08;98849.22;;;3.16;72.20
77333;BME280;66408;51.326;12.070;2023-01-16T05:43:35;98862.50;;;3.08;72.27
77333;BME280;66408;51.326;12.070;2023-01-16T05:46:02;98859.47;;;2.96;72.70
77333;BME280;66408;51.326;12.070;2023-01-16T05:48:30;98853.13;;;2.86;73.38
77333;BME280;66408;51.326;12.070;2023-01-16T05:51:00;98851.34;;;2.82;73.18
77333;BME280;66408;51.326;12.070;2023-01-16T05:53:27;98846.53;;;2.79;73.63
77333;BME280;66408;51.326;12.070;2023-01-16T05:55:54;98848.97;;;2.75;73.40
77333;BME280;66408;51.326;12.070;2023-01-16T05:58:21;98854.34;;;2.75;73.36
77333;BME280;66408;51.326;12.070;2023-01-16T06:00:47;98844.50;;;2.71;73.63
77333;BME280;66408;51.326;12.070;2023-01-16T06:03:14;98840.00;;;2.66;73.69
77333;BME280;66408;51.326;12.070;2023-01-16T06:05:42;98833.59;;;2.62;73.72
77333;BME280;66408;51.326;12.070;2023-01-16T06:08:09;98825.91;;;2.56;73.95
77333;BME280;66408;51.326;12.070;2023-01-16T06:10:35;98816.50;;;2.58;73.74
77333;BME280;66408;51.326;12.070;2023-01-16T06:13:03;98819.19;;;2.58;73.60
77333;BME280;66408;51.326;12.070;2023-01-16T06:15:30;98822.16;;;2.75;72.89
77333;BME280;66408;51.326;12.070;2023-01-16T06:17:56;98824.69;;;2.85;72.65
77333;BME280;66408;51.326;12.070;2023-01-16T06:20:23;98815.22;;;2.93;71.90
77333;BME280;66408;51.326;12.070;2023-01-16T06:22:49;98825.72;;;2.89;72.15
77333;BME280;66408;51.326;12.070;2023-01-16T06:25:16;98820.84;;;2.92;71.91
77333;BME280;66408;51.326;12.070;2023-01-16T06:27:47;98816.88;;;2.89;72.14
77333;BME280;66408;51.326;12.070;2023-01-16T06:30:13;98812.53;;;2.93;71.85
77333;BME280;66408;51.326;12.070;2023-01-16T06:32:40;98801.56;;;2.89;71.66
77333;BME280;66408;51.326;12.070;2023-01-16T06:35:07;98806.22;;;2.84;72.13
77333;BME280;66408;51.326;12.070;2023-01-16T06:37:33;98802.94;;;2.87;72.10
77333;BME280;66408;51.326;12.070;2023-01-16T06:40:00;98803.44;;;2.89;71.67
77333;BME280;66408;51.326;12.070;2023-01-16T06:42:27;98803.94;;;2.91;71.54
77333;BME280;66408;51.326;12.070;2023-01-16T06:44:54;98803.94;;;2.91;71.77
77333;BME280;66408;51.326;12.070;2023-01-16T06:47:20;98796.19;;;2.89;71.48
77333;BME280;66408;51.326;12.070;2023-01-16T06:49:47;98801.19;;;2.77;72.02
77333;BME280;66408;51.326;12.070;2023-01-16T06:52:13;98797.56;;;2.68;72.28
77333;BME280;66408;51.326;12.070;2023-01-16T06:54:39;98796.25;;;2.66;72.45
77333;BME280;66408;51.326;12.070;2023-01-16T06:57:06;98791.47;;;2.63;72.58
77333;BME280;66408;51.326;12.070;2023-01-16T06:59:32;98789.72;;;2.53;72.93
77333;BME280;66408;51.326;12.070;2023-01-16T07:01:59;98790.59;;;2.48;73.01
77333;BME280;66408;51.326;12.070;2023-01-16T07:04:25;98791.75;;;2.42;73.07
77333;BME280;66408;51.326;12.070;2023-01-16T07:06:52;98784.28;;;2.39;73.38
77333;BME280;66408;51.326;12.070;2023-01-16T07:09:19;98785.34;;;2.38;73.32
77333;BME280;66408;51.326;12.070;2023-01-16T07:11:48;98773.19;;;2.46;73.36
77333;BME280;66408;51.326;12.070;2023-01-16T07:14:15;98780.44;;;2.45;73.27
77333;BME280;66408;51.326;12.070;2023-01-16T07:17:00;98774.09;;;2.36;73.29
77333;BME280;66408;51.326;12.070;2023-01-16T07:19:45;98774.75;;;2.28;73.47
77333;BME280;66408;51.326;12.070;2023-01-16T07:22:29;98770.94;;;2.34;73.28
77333;BME280;66408;51.326;12.070;2023-01-16T07:25:12;98771.88;;;2.43;73.18
77333;BME280;66408;51.326;12.070;2023-01-16T07:27:41;98764.22;;;2.56;72.41
77333;BME280;66408;51.326;12.070;2023-01-16T07:30:09;98765.81;;;2.57;72.62
77333;BME280;66408;51.326;12.070;2023-01-16T07:32:36;98760.00;;;2.49;72.60
77333;BME280;66408;51.326;12.070;2023-01-16T07:35:03;98751.88;;;2.55;72.44
77333;BME280;66408;51.326;12.070;2023-01-16T07:37:29;98745.72;;;2.54;72.45
77333;BME280;66408;51.326;12.070;2023-01-16T07:39:56;98741.66;;;2.57;72.58
77333;BME280;66408;51.326;12.070;2023-01-16T07:42:22;98743.91;;;2.49;72.82
77333;BME280;66408;51.326;12.070;2023-01-16T07:44:49;98748.53;;;2.63;72.55
77333;BME280;66408;51.326;12.070;2023-01-16T07:47:15;98737.53;;;2.64;72.22
77333;BME280;66408;51.326;12.070;2023-01-16T07:49:42;98732.59;;;2.71;72.46
77333;BME280;66408;51.326;12.070;2023-01-16T07:52:08;98724.56;;;2.71;72.15
77333;BME280;66408;51.326;12.070;2023-01-16T07:54:34;98724.56;;;2.71;72.05
77333;BME280;66408;51.326;12.070;2023-01-16T07:57:05;98713.38;;;2.83;71.89
77333;BME280;66408;51.326;12.070;2023-01-16T07:59:32;98704.56;;;2.96;71.69
77333;BME280;66408;51.326;12.070;2023-01-16T08:01:58;98702.56;;;3.02;71.33
77333;BME280;66408;51.326;12.070;2023-01-16T08:04:25;98696.63;;;3.05;71.45
77333;BME280;66408;51.326;12.070;2023-01-16T08:06:52;98690.75;;;3.03;71.13
77333;BME280;66408;51.326;12.070;2023-01-16T08:09:18;98686.41;;;3.07;71.29
77333;BME280;66408;51.326;12.070;2023-01-16T08:11:44;98677.88;;;3.18;70.85
77333;BME280;66408;51.326;12.070;2023-01-16T08:14:14;98675.06;;;3.23;70.57
77333;BME280;66408;51.326;12.070;2023-01-16T08:16:41;98670.31;;;3.34;70.27
77333;BME280;66408;51.326;12.070;2023-01-16T08:19:07;98680.09;;;3.44;69.71
77333;BME280;66408;51.326;12.070;2023-01-16T08:21:34;98675.91;;;3.51;69.70
77333;BME280;66408;51.326;12.070;2023-01-16T08:24:00;98674.72;;;3.57;69.11
77333;BME280;66408;51.326;12.070;2023-01-16T08:26:27;98663.66;;;3.73;68.51
77333;BME280;66408;51.326;12.070;2023-01-16T08:28:53;98663.06;;;3.89;68.98
77333;BME280;66408;51.326;12.070;2023-01-16T08:31:20;98643.63;;;4.06;67.43
77333;BME280;66408;51.326;12.070;2023-01-16T08:33:49;98645.47;;;4.19;67.22
77333;BME280;66408;51.326;12.070;2023-01-16T08:36:16;98631.09;;;4.24;67.23
77333;BME280;66408;51.326;12.070;2023-01-16T08:38:49;98629.91;;;4.52;66.02
77333;BME280;66408;51.326;12.070;2023-01-16T08:41:16;98628.22;;;4.56;65.49
77333;BME280;66408;51.326;12.070;2023-01-16T08:44:01;98627.34;;;4.69;65.72
77333;BME280;66408;51.326;12.070;2023-01-16T08:46:55;98621.75;;;4.88;64.95
77333;BME280;66408;51.326;12.070;2023-01-16T08:49:41;98613.56;;;4.93;64.76
77333;BME280;66408;51.326;12.070;2023-01-16T08:52:27;98607.91;;;5.03;64.03
77333;BME280;66408;51.326;12.070;2023-01-16T08:54:57;98604.75;;;5.10;63.70
77333;BME280;66408;51.326;12.070;2023-01-16T08:57:25;98599.28;;;5.24;64.33
77333;BME280;66408;51.326;12.070;2023-01-16T08:59:51;98598.34;;;5.28;64.30
77333;BME280;66408;51.326;12.070;2023-01-16T09:02:18;98591.25;;;5.41;63.75
77333;BME280;66408;51.326;12.070;2023-01-16T09:04:46;98595.44;;;5.56;63.28
77333;BME280;66408;51.326;12.070;2023-01-16T09:07:14;98592.94;;;5.76;62.00
77333;BME280;66408;51.326;12.070;2023-01-16T09:09:41;98589.50;;;5.93;61.78
77333;BME280;66408;51.326;12.070;2023-01-16T09:12:09;98582.19;;;6.11;62.07
77333;BME280;66408;51.326;12.070;2023-01-16T09:14:54;98590.44;;;6.32;61.08
77333;BME280;66408;51.326;12.070;2023-01-16T09:17:22;98583.13;;;6.67;59.71
77333;BME280;66408;51.326;12.070;2023-01-16T09:19:49;98582.88;;;6.98;59.92
77333;BME280;66408;51.326;12.070;2023-01-16T09:22:16;98576.75;;;7.18;57.80
77333;BME280;66408;51.326;12.070;2023-01-16T09:24:42;98573.03;;;7.02;57.63
77333;BME280;66408;51.326;12.070;2023-01-16T09:27:09;98577.44;;;7.06;57.84
77333;BME280;66408;51.326;12.070;2023-01-16T09:29:36;98563.81;;;7.32;56.97
77333;BME280;66408;51.326;12.070;2023-01-16T09:32:02;98554.75;;;7.37;55.85
77333;BME280;66408;51.326;12.070;2023-01-16T09:34:45;98555.56;;;7.58;54.99
77333;BME280;66408;51.326;12.070;2023-01-16T09:37:12;98552.88;;;7.58;54.74
77333;BME280;66408;51.326;12.070;2023-01-16T09:39:39;98549.44;;;7.49;55.51
77333;BME280;66408;51.326;12.070;2023-01-16T09:42:32;98543.06;;;7.74;55.30
77333;BME280;66408;51.326;12.070;2023-01-16T09:45:28;98529.72;;;8.11;55.02
77333;BME280;66408;51.326;12.070;2023-01-16T09:48:38;98524.91;;;8.37;54.12
77333;BME280;66408;51.326;12.070;2023-01-16T09:51:14;98520.97;;;8.14;53.74
77333;BME280;66408;51.326;12.070;2023-01-16T09:53:53;98520.66;;;8.48;53.51
77333;BME280;66408;51.326;12.070;2023-01-16T09:56:45;98519.09;;;8.59;53.26
77333;BME280;66408;51.326;12.070;2023-01-16T09:59:38;98514.59;;;8.51;52.89
77333;BME280;66408;51.326;12.070;2023-01-16T10:02:14;98503.72;;;9.09;52.47
77333;BME280;66408;51.326;12.070;2023-01-16T10:04:46;98500.66;;;9.47;52.26
77333;BME280;66408;51.326;12.070;2023-01-16T10:13:08;98472.03;;;9.89;49.72
77333;BME280;66408;51.326;12.070;2023-01-16T10:18:36;98461.56;;;9.23;49.25
77333;BME280;66408;51.326;12.070;2023-01-16T10:29:05;98435.69;;;8.53;52.94
77333;BME280;66408;51.326;12.070;2023-01-16T10:31:41;98431.28;;;8.48;52.20
77333;BME280;66408;51.326;12.070;2023-01-16T10:34:31;98430.63;;;8.30;52.28
77333;BME280;66408;51.326;12.070;2023-01-16T10:37:00;98425.06;;;8.03;53.99
77333;BME280;66408;51.326;12.070;2023-01-16T10:39:36;98411.28;;;8.08;53.51
77333;BME280;66408;51.326;12.070;2023-01-16T10:45:12;98398.13;;;7.32;56.93
77333;BME280;66408;51.326;12.070;2023-01-16T10:47:58;98381.97;;;8.10;54.49
77333;BME280;66408;51.326;12.070;2023-01-16T10:50:45;98385.34;;;8.88;53.54
77333;BME280;66408;51.326;12.070;2023-01-16T10:53:11;98373.13;;;9.07;51.59
77333;BME280;66408;51.326;12.070;2023-01-16T10:55:41;98372.16;;;8.62;54.19
77333;BME280;66408;51.326;12.070;2023-01-16T10:58:36;98362.44;;;8.49;52.86
77333;BME280;66408;51.326;12.070;2023-01-16T11:01:08;98354.66;;;8.72;52.22
77333;BME280;66408;51.326;12.070;2023-01-16T11:04:04;98339.06;;;8.33;54.19
77333;BME280;66408;51.326;12.070;2023-01-16T11:06:31;98332.38;;;8.18;54.61
77333;BME280;66408;51.326;12.070;2023-01-16T11:09:06;98337.16;;;7.76;54.44
77333;BME280;66408;51.326;12.070;2023-01-16T11:11:37;98339.63;;;7.81;57.16
77333;BME280;66408;51.326;12.070;2023-01-16T11:14:25;98322.56;;;8.13;55.97
77333;BME280;66408;51.326;12.070;2023-01-16T11:17:34;98323.34;;;8.02;55.62
77333;BME280;66408;51.326;12.070;2023-01-16T11:20:27;98314.06;;;7.90;55.87
77333;BME280;66408;51.326;12.070;2023-01-16T11:25:27;98314.69;;;7.63;55.28
77333;BME280;66408;51.326;12.070;2023-01-16T11:27:56;98312.81;;;7.88;54.01
77333;BME280;66408;51.326;12.070;2023-01-16T11:30:43;98299.66;;;8.11;54.68
77333;BME280;66408;51.326;12.070;2023-01-16T11:33:15;98292.78;;;8.13;52.63
77333;BME280;66408;51.326;12.070;2023-01-16T11:35:51;98274.63;;;8.14;53.77
77333;BME280;66408;51.326;12.070;2023-01-16T11:38:19;98259.19;;;8.14;52.41
77333;BME280;66408;51.326;12.070;2023-01-16T11:40:47;98251.59;;;7.83;53.12
77333;BME280;66408;51.326;12.070;2023-01-16T11:43:18;98237.13;;;7.67;54.42
77333;BME280;66408;51.326;12.070;2023-01-16T11:46:20;98229.03;;;7.67;53.98
77333;BME280;66408;51.326;12.070;2023-01-16T11:48:50;98213.72;;;7.83;55.27
77333;BME280;66408;51.326;12.070;2023-01-16T11:51:20;98218.22;;;7.91;54.47
77333;BME280;66408;51.326;12.070;2023-01-16T11:53:49;98202.75;;;7.55;54.11
77333;BME280;66408;51.326;12.070;2023-01-16T11:59:28;98186.50;;;6.98;55.88
77333;BME280;66408;51.326;12.070;2023-01-16T12:05:07;98174.59;;;6.99;55.73
77333;BME280;66408;51.326;12.070;2023-01-16T12:13:46;98139.03;;;7.09;55.85
77333;BME280;66408;51.326;12.070;2023-01-16T12:22:21;98122.03;;;6.43;57.86
77333;BME280;66408;51.326;12.070;2023-01-16T12:27:50;98097.66;;;6.52;58.93
77333;BME280;66408;51.326;12.070;2023-01-16T12:35:26;98077.41;;;6.78;57.47
77333;BME280;66408;51.326;12.070;2023-01-16T12:41:23;98070.44;;;6.90;58.15
77333;BME280;66408;51.326;12.070;2023-01-16T12:49:47;98032.59;;;6.65;57.80
77333;BME280;66408;51.326;12.070;2023-01-16T12:55:23;98013.78;;;6.69;58.08
77333;BME280;66408;51.326;12.070;2023-01-16T12:58:19;98003.78;;;6.69;57.00
77333;BME280;66408;51.326;12.070;2023-01-16T13:00:52;98001.75;;;6.66;57.72
77333;BME280;66408;51.326;12.070;2023-01-16T13:03:37;97987.88;;;6.56;58.38
77333;BME280;66408;51.326;12.070;2023-01-16T13:06:11;97983.72;;;6.58;57.11
77333;BME280;66408;51.326;12.070;2023-01-16T13:11:15;97964.16;;;6.49;56.92
77333;BME280;66408;51.326;12.070;2023-01-16T13:14:05;97977.31;;;6.51;58.40
77333;BME280;66408;51.326;12.070;2023-01-16T13:16:37;97980.16;;;6.54;57.38
77333;BME280;66408;51.326;12.070;2023-01-16T13:19:15;97969.53;;;6.49;57.86
77333;BME280;66408;51.326;12.070;2023-01-16T13:22:43;97969.97;;;6.39;58.44
77333;BME280;66408;51.326;12.070;2023-01-16T13:25:34;97956.63;;;6.42;57.90
77333;BME280;66408;51.326;12.070;2023-01-16T13:28:07;97953.91;;;6.42;58.47
77333;BME280;66408;51.326;12.070;2023-01-16T13:30:41;97949.63;;;6.41;56.91
77333;BME280;66408;51.326;12.070;2023-01-16T13:33:13;97942.72;;;6.32;58.13
77333;BME280;66408;51.326;12.070;2023-01-16T13:35:55;97946.69;;;6.34;58.50
77333;BME280;66408;51.326;12.070;2023-01-16T13:38:39;97931.50;;;6.30;58.93
77333;BME280;66408;51.326;12.070;2023-01-16T13:41:14;97921.56;;;6.22;59.33
77333;BME280;66408;51.326;12.070;2023-01-16T13:43:53;97920.00;;;6.21;59.10
77333;BME280;66408;51.326;12.070;2023-01-16T13:46:41;97930.47;;;6.22;59.35
77333;BME280;66408;51.326;12.070;2023-01-16T13:49:16;97920.69;;;6.18;60.20
77333;BME280;66408;51.326;12.070;2023-01-16T13:51:44;97911.56;;;6.22;60.53
77333;BME280;66408;51.326;12.070;2023-01-16T13:54:15;97906.63;;;6.12;61.15
77333;BME280;66408;51.326;12.070;2023-01-16T13:56:42;97908.38;;;6.08;60.78
77333;BME280;66408;51.326;12.070;2023-01-16T13:59:51;97896.38;;;6.05;60.82
77333;BME280;66408;51.326;12.070;2023-01-16T14:13:30;97894.22;;;5.99;62.56
77333;BME280;66408;51.326;12.070;2023-01-16T14:16:31;97879.41;;;6.05;61.77
77333;BME280;66408;51.326;12.070;2023-01-16T14:19:19;97879.75;;;6.16;61.00
77333;BME280;66408;51.326;12.070;2023-01-16T14:21:46;97871.75;;;6.07;61.11
77333;BME280;66408;51.326;12.070;2023-01-16T14:24:45;97865.34;;;5.99;61.61
77333;BME280;66408;51.326;12.070;2023-01-16T14:27:22;97864.78;;;6.06;61.21
77333;BME280;66408;51.326;12.070;2023-01-16T14:29:56;97853.75;;;5.99;61.71
77333;BME280;66408;51.326;12.070;2023-01-16T14:32:28;97855.78;;;5.90;62.14
77333;BME280;66408;51.326;12.070;2023-01-16T14:34:57;97851.78;;;5.87;62.36
77333;BME280;66408;51.326;12.070;2023-01-16T14:37:31;97856.47;;;5.99;61.64
77333;BME280;66408;51.326;12.070;2023-01-16T14:40:11;97851.72;;;5.96;62.01
77333;BME280;66408;51.326;12.070;2023-01-16T14:45:32;97854.34;;;5.84;62.48
77333;BME280;66408;51.326;12.070;2023-01-16T14:53:59;97826.44;;;5.88;62.89
77333;BME280;66408;51.326;12.070;2023-01-16T14:56:49;97835.03;;;5.82;62.33
77333;BME280;66408;51.326;12.070;2023-01-16T14:59:32;97824.94;;;5.78;62.30
77333;BME280;66408;51.326;12.070;2023-01-16T15:02:08;97817.28;;;5.68;62.25
77333;BME280;66408;51.326;12.070;2023-01-16T15:04:53;97823.53;;;5.60;62.52
77333;BME280;66408;51.326;12.070;2023-01-16T15:07:48;97817.47;;;5.63;62.42
77333;BME280;66408;51.326;12.070;2023-01-16T15:10:20;97805.31;;;5.57;62.70
77333;BME280;66408;51.326;12.070;2023-01-16T15:12:47;97809.25;;;5.60;62.84
77333;BME280;66408;51.326;12.070;2023-01-16T15:15:27;97807.34;;;5.60;62.92
77333;BME280;66408;51.326;12.070;2023-01-16T15:17:56;97804.44;;;5.65;63.07
77333;BME280;66408;51.326;12.070;2023-01-16T15:20:46;97798.94;;;5.62;63.23
77333;BME280;66408;51.326;12.070;2023-01-16T15:23:35;97798.00;;;5.58;62.79
77333;BME280;66408;51.326;12.070;2023-01-16T15:31:18;97767.16;;;5.55;62.93
77333;BME280;66408;51.326;12.070;2023-01-16T15:33:45;97769.84;;;5.55;62.75
77333;BME280;66408;51.326;12.070;2023-01-16T15:41:19;97762.97;;;5.58;61.18